Terminal Aerodrome Forecast
Issued by NWS

Home | Current Version | Previous Version | Text Only | Print | Product List | Glossary On
Versions: 1 2 3 4 5 6 7 8 9 10 11 12 13 14 15 16 17
312
FTUS44 KBMX 291137
TAFEET
TAF
KEET 291137Z 2912/3012 36009KT P6SM SKC
     FM291700 34012G16KT P6SM SKC
     FM300000 33005KT P6SM FEW050=

USA.gov is the U.S. government's official web portal to all federal, state and local government web resources and services.